Time;durP1;ratioP1;P1;durP2;ratioP2;P2;SDS_P1;SDS_P2;PMS_P1;PMS_P2;Temp;Humidity;BMP_temperature;BMP_pressure;BME280_temperature;BME280_humidity;BME280_pressure;Samples;Min_cycle;Max_cycle;Signal;HPM_P1;HPM_P2
2022/11/18 00:00:31;;;;;;;39.87;25.60;;;;;;;;;;735316;190;920937;-68
2022/11/18 00:02:57;;;;;;;48.97;27.80;;;;;;;;;;732244;189;918504;-66
2022/11/18 00:05:23;;;;;;;40.80;25.98;;;;;;;;;;733101;191;920763;-67
2022/11/18 00:07:49;;;;;;;50.38;35.50;;;;;;;;;;738778;191;872893;-69
2022/11/18 00:10:16;;;;;;;38.50;23.10;;;;;;;;;;737070;189;919118;-67
2022/11/18 00:15:13;;;;;;;43.97;23.90;;;;;;;;;;733544;190;906802;-67
2022/11/18 00:17:39;;;;;;;41.90;23.27;;;;;;;;;;737978;191;816797;-67
2022/11/18 00:20:05;;;;;;;39.57;21.13;;;;;;;;;;732410;191;917158;-69
2022/11/18 00:22:31;;;;;;;45.13;25.33;;;;;;;;;;735500;190;916558;-67
2022/11/18 00:24:57;;;;;;;41.40;25.07;;;;;;;;;;733312;191;886048;-70
2022/11/18 00:27:23;;;;;;;41.40;24.17;;;;;;;;;;735808;188;918512;-70
2022/11/18 00:29:49;;;;;;;45.10;25.80;;;;;;;;;;732834;191;918315;-67
2022/11/18 00:32:15;;;;;;;39.83;24.30;;;;;;;;;;734079;191;917946;-67
2022/11/18 00:34:41;;;;;;;41.97;24.70;;;;;;;;;;733008;188;920315;-68
2022/11/18 00:37:06;;;;;;;40.53;21.83;;;;;;;;;;727696;192;914018;-67
2022/11/18 00:39:32;;;;;;;45.85;26.10;;;;;;;;;;728139;190;913112;-70
2022/11/18 00:44:30;;;;;;;31.10;18.93;;;;;;;;;;740519;189;918671;-71
2022/11/18 00:46:56;;;;;;;35.13;21.10;;;;;;;;;;730074;192;917342;-70
2022/11/18 00:49:22;;;;;;;45.00;23.80;;;;;;;;;;729617;191;923908;-67
2022/11/18 00:51:47;;;;;;;42.57;22.70;;;;;;;;;;723370;194;918939;-70
2022/11/18 00:54:13;;;;;;;31.67;18.23;;;;;;;;;;721383;193;918254;-70
2022/11/18 00:56:39;;;;;;;45.63;24.03;;;;;;;;;;733126;190;904152;-68
2022/11/18 00:59:05;;;;;;;35.78;21.20;;;;;;;;;;735324;191;919961;-70
2022/11/18 01:01:31;;;;;;;41.23;22.80;;;;;;;;;;725099;190;920461;-69
2022/11/18 01:03:57;;;;;;;39.47;21.50;;;;;;;;;;730980;189;920395;-70
2022/11/18 01:06:23;;;;;;;41.20;23.30;;;;;;;;;;733237;191;913310;-70
2022/11/18 01:08:48;;;;;;;44.53;23.73;;;;;;;;;;731524;188;916665;-68
2022/11/18 01:13:49;;;;;;;44.83;23.70;;;;;;;;;;730438;188;906194;-70
2022/11/18 01:16:14;;;;;;;46.70;26.93;;;;;;;;;;735240;191;914588;-70
2022/11/18 01:18:40;;;;;;;44.80;26.20;;;;;;;;;;734589;188;842623;-68
2022/11/18 01:21:06;;;;;;;48.28;24.15;;;;;;;;;;734294;191;919326;-67
2022/11/18 01:23:33;;;;;;;44.08;21.70;;;;;;;;;;734618;190;935542;-69
2022/11/18 01:25:58;;;;;;;43.27;23.40;;;;;;;;;;735343;191;912251;-67
2022/11/18 01:28:24;;;;;;;43.07;22.13;;;;;;;;;;730597;189;917871;-67
2022/11/18 01:30:50;;;;;;;36.63;20.30;;;;;;;;;;731825;191;919261;-66
2022/11/18 01:33:16;;;;;;;45.23;22.97;;;;;;;;;;738594;191;1022579;-70
2022/11/18 01:35:42;;;;;;;44.57;24.03;;;;;;;;;;725647;191;919355;-67
2022/11/18 01:38:08;;;;;;;42.60;23.67;;;;;;;;;;729387;190;817705;-67
2022/11/18 01:40:33;;;;;;;48.03;26.70;;;;;;;;;;734653;191;920780;-70
2022/11/18 01:42:59;;;;;;;45.23;23.70;;;;;;;;;;732365;191;918082;-70
2022/11/18 01:45:28;;;;;;;47.37;26.47;;;;;;;;;;735060;191;918968;-70
2022/11/18 01:47:54;;;;;;;43.10;25.40;;;;;;;;;;731595;191;815861;-68
2022/11/18 01:50:20;;;;;;;49.77;25.63;;;;;;;;;;737532;189;918524;-70
2022/11/18 01:52:46;;;;;;;46.17;24.67;;;;;;;;;;730753;188;923579;-70
2022/11/18 01:55:11;;;;;;;46.30;25.17;;;;;;;;;;722633;191;919324;-70
2022/11/18 01:57:37;;;;;;;46.17;25.77;;;;;;;;;;733629;191;815700;-70
2022/11/18 02:00:04;;;;;;;49.23;24.60;;;;;;;;;;730388;191;920608;-70
2022/11/18 02:02:29;;;;;;;49.77;26.20;;;;;;;;;;735732;191;635887;-68
2022/11/18 02:04:55;;;;;;;54.73;26.30;;;;;;;;;;736090;190;617677;-67
2022/11/18 02:07:21;;;;;;;51.00;24.57;;;;;;;;;;733078;190;920297;-70
2022/11/18 02:09:47;;;;;;;51.20;25.30;;;;;;;;;;732249;190;893459;-70
2022/11/18 02:12:13;;;;;;;56.40;25.62;;;;;;;;;;730244;191;918723;-69
2022/11/18 02:14:39;;;;;;;53.37;29.10;;;;;;;;;;738081;189;919832;-67
2022/11/18 02:17:07;;;;;;;55.13;29.30;;;;;;;;;;729393;191;902326;-70
2022/11/18 02:19:34;;;;;;;49.90;26.30;;;;;;;;;;734260;188;942191;-71
2022/11/18 02:22:00;;;;;;;45.33;21.20;;;;;;;;;;733776;191;919441;-69
2022/11/18 02:24:34;;;;;;;45.60;26.83;;;;;;;;;;730733;190;908035;-69
2022/11/18 02:27:00;;;;;;;52.50;29.37;;;;;;;;;;724819;192;913976;-68
2022/11/18 02:29:26;;;;;;;61.63;29.58;;;;;;;;;;729380;188;920892;-67
2022/11/18 02:31:55;;;;;;;55.30;26.53;;;;;;;;;;733135;191;926024;-69
2022/11/18 02:34:40;;;;;;;51.85;26.08;;;;;;;;;;733808;191;916122;-70
2022/11/18 02:37:09;;;;;;;51.53;26.60;;;;;;;;;;738735;190;917943;-70
2022/11/18 02:39:37;;;;;;;51.60;22.97;;;;;;;;;;735789;188;916642;-68
2022/11/18 02:42:02;;;;;;;56.47;25.43;;;;;;;;;;733963;190;852812;-70
2022/11/18 02:44:28;;;;;;;53.37;26.10;;;;;;;;;;729939;192;919225;-70
2022/11/18 02:46:54;;;;;;;57.23;24.77;;;;;;;;;;728408;191;925534;-70
2022/11/18 02:49:21;;;;;;;60.23;27.90;;;;;;;;;;734384;188;917299;-70
2022/11/18 02:51:47;;;;;;;53.63;25.70;;;;;;;;;;742579;191;617652;-67
2022/11/18 02:54:13;;;;;;;55.83;27.27;;;;;;;;;;737250;187;918711;-67
2022/11/18 02:56:38;;;;;;;54.00;24.70;;;;;;;;;;728002;191;917036;-67
2022/11/18 02:59:04;;;;;;;55.30;26.70;;;;;;;;;;732851;192;814434;-70
2022/11/18 03:01:30;;;;;;;61.80;28.43;;;;;;;;;;726881;191;921024;-69
2022/11/18 03:03:56;;;;;;;60.30;29.23;;;;;;;;;;734377;188;822110;-71
2022/11/18 03:06:26;;;;;;;53.70;24.37;;;;;;;;;;731415;191;816617;-68
2022/11/18 03:08:52;;;;;;;46.07;18.50;;;;;;;;;;733922;191;919121;-70
2022/11/18 03:11:27;;;;;;;61.93;27.57;;;;;;;;;;732589;190;918983;-70
2022/11/18 03:13:53;;;;;;;62.27;27.57;;;;;;;;;;728138;189;918803;-70
2022/11/18 03:16:19;;;;;;;49.37;23.67;;;;;;;;;;726079;192;1017889;-69
2022/11/18 03:18:46;;;;;;;66.17;28.23;;;;;;;;;;732375;191;916396;-70
2022/11/18 03:21:15;;;;;;;46.57;22.70;;;;;;;;;;727679;191;813933;-69
2022/11/18 03:23:41;;;;;;;69.93;28.60;;;;;;;;;;726638;190;918826;-72
2022/11/18 03:26:08;;;;;;;52.67;27.70;;;;;;;;;;734595;191;970731;-68
2022/11/18 03:28:36;;;;;;;49.73;24.60;;;;;;;;;;739374;188;915146;-67
2022/11/18 03:31:02;;;;;;;77.23;31.37;;;;;;;;;;734640;190;917518;-70
2022/11/18 03:33:28;;;;;;;45.57;21.50;;;;;;;;;;732572;188;1038579;-70
2022/11/18 03:35:54;;;;;;;62.53;28.67;;;;;;;;;;739921;191;918717;-68
2022/11/18 03:38:19;;;;;;;54.20;24.63;;;;;;;;;;735634;189;915526;-68
2022/11/18 03:40:45;;;;;;;43.73;21.67;;;;;;;;;;735331;191;874530;-67
2022/11/18 03:43:13;;;;;;;59.27;27.40;;;;;;;;;;737002;189;919579;-71
2022/11/18 03:45:54;;;;;;;62.07;28.80;;;;;;;;;;732262;191;918828;-69
2022/11/18 03:48:19;;;;;;;59.97;25.47;;;;;;;;;;731564;191;919194;-69
2022/11/18 03:50:45;;;;;;;52.70;25.77;;;;;;;;;;729996;191;921908;-67
2022/11/18 03:53:11;;;;;;;66.33;24.20;;;;;;;;;;723544;191;919651;-69
2022/11/18 03:55:38;;;;;;;44.20;19.73;;;;;;;;;;743918;188;918637;-69
2022/11/18 03:58:07;;;;;;;48.23;21.00;;;;;;;;;;732859;190;918624;-69
2022/11/18 04:00:33;;;;;;;52.50;24.03;;;;;;;;;;723285;191;914726;-68
2022/11/18 04:02:58;;;;;;;57.53;27.50;;;;;;;;;;737939;191;816513;-67
2022/11/18 04:05:24;;;;;;;58.43;28.63;;;;;;;;;;724431;191;815103;-69
2022/11/18 04:07:55;;;;;;;59.47;25.33;;;;;;;;;;725679;190;920266;-68
2022/11/18 04:10:27;;;;;;;58.20;27.87;;;;;;;;;;728229;191;919770;-68
2022/11/18 04:13:07;;;;;;;57.70;27.73;;;;;;;;;;738285;191;919116;-67
2022/11/18 04:15:33;;;;;;;59.70;24.07;;;;;;;;;;731185;190;809505;-69
2022/11/18 04:17:59;;;;;;;41.43;20.20;;;;;;;;;;730741;189;852780;-69
2022/11/18 04:20:25;;;;;;;45.33;23.00;;;;;;;;;;728736;191;915516;-67
2022/11/18 04:22:51;;;;;;;55.80;25.60;;;;;;;;;;732533;190;1020585;-67
2022/11/18 04:25:17;;;;;;;49.97;24.20;;;;;;;;;;732746;191;915118;-67
2022/11/18 04:27:43;;;;;;;48.23;20.30;;;;;;;;;;729884;189;920977;-67
2022/11/18 04:30:09;;;;;;;31.37;16.45;;;;;;;;;;730601;191;917861;-68
2022/11/18 04:32:35;;;;;;;46.87;25.80;;;;;;;;;;735288;189;917454;-68
2022/11/18 04:35:01;;;;;;;58.27;24.67;;;;;;;;;;733164;190;918481;-69
2022/11/18 04:37:26;;;;;;;46.67;19.27;;;;;;;;;;733348;190;918838;-66
2022/11/18 04:39:52;;;;;;;43.83;20.00;;;;;;;;;;736860;190;919301;-69
2022/11/18 04:42:18;;;;;;;47.87;19.50;;;;;;;;;;732680;188;896155;-69
2022/11/18 04:44:44;;;;;;;49.47;21.05;;;;;;;;;;732227;190;899449;-67
2022/11/18 04:47:10;;;;;;;60.97;26.00;;;;;;;;;;736227;191;917410;-68
2022/11/18 04:49:36;;;;;;;58.33;20.83;;;;;;;;;;728481;191;917512;-68
2022/11/18 04:52:02;;;;;;;55.33;21.07;;;;;;;;;;731432;190;919430;-69
2022/11/18 04:54:28;;;;;;;45.40;22.40;;;;;;;;;;736539;186;915491;-67
2022/11/18 04:56:53;;;;;;;49.40;19.85;;;;;;;;;;729348;191;919656;-67
2022/11/18 04:59:19;;;;;;;62.70;23.83;;;;;;;;;;730808;191;915517;-69
2022/11/18 05:01:45;;;;;;;56.40;19.97;;;;;;;;;;730299;191;919352;-69
2022/11/18 05:04:11;;;;;;;56.97;23.50;;;;;;;;;;735507;191;918753;-67
2022/11/18 05:06:37;;;;;;;52.37;22.07;;;;;;;;;;729847;191;920330;-68
2022/11/18 05:09:03;;;;;;;67.00;26.48;;;;;;;;;;731886;188;916393;-68
2022/11/18 05:14:00;;;;;;;46.90;21.37;;;;;;;;;;730193;190;951567;-69
2022/11/18 05:16:26;;;;;;;41.13;18.57;;;;;;;;;;729683;191;915241;-69
2022/11/18 05:18:52;;;;;;;77.03;25.20;;;;;;;;;;729951;191;912230;-69
2022/11/18 05:21:18;;;;;;;44.00;18.67;;;;;;;;;;735702;191;918351;-67
2022/11/18 05:23:44;;;;;;;52.87;24.53;;;;;;;;;;729247;189;920987;-67
2022/11/18 05:26:10;;;;;;;61.80;18.40;;;;;;;;;;728861;191;918346;-70
2022/11/18 05:28:35;;;;;;;51.80;24.10;;;;;;;;;;732977;189;998866;-70
2022/11/18 05:31:05;;;;;;;51.90;21.87;;;;;;;;;;729474;191;920195;-70
2022/11/18 05:33:31;;;;;;;61.63;27.03;;;;;;;;;;728681;191;822786;-71
2022/11/18 05:35:57;;;;;;;49.27;20.23;;;;;;;;;;734666;191;919203;-68
2022/11/18 05:38:23;;;;;;;74.63;31.53;;;;;;;;;;729661;188;920592;-69
2022/11/18 05:40:48;;;;;;;295.37;134.20;;;;;;;;;;730359;191;816394;-69
2022/11/18 05:43:14;;;;;;;70.53;31.33;;;;;;;;;;731565;190;822826;-68
2022/11/18 05:45:40;;;;;;;66.80;28.97;;;;;;;;;;737282;191;919719;-67
2022/11/18 05:48:06;;;;;;;58.90;28.03;;;;;;;;;;730206;190;917013;-70
2022/11/18 05:50:32;;;;;;;58.80;23.77;;;;;;;;;;733152;190;907561;-68
2022/11/18 05:52:58;;;;;;;56.07;25.73;;;;;;;;;;738193;191;916497;-68
2022/11/18 05:55:24;;;;;;;70.37;25.50;;;;;;;;;;733462;190;940584;-67
2022/11/18 05:57:50;;;;;;;74.33;25.90;;;;;;;;;;732046;189;917677;-68
2022/11/18 06:00:17;;;;;;;47.13;20.87;;;;;;;;;;734732;191;917296;-70
2022/11/18 06:02:43;;;;;;;57.57;28.07;;;;;;;;;;731338;191;919079;-69
2022/11/18 06:05:09;;;;;;;61.65;26.30;;;;;;;;;;729174;191;1017001;-71
2022/11/18 06:07:36;;;;;;;40.03;20.93;;;;;;;;;;722995;191;1021340;-70
2022/11/18 06:10:03;;;;;;;32.70;17.83;;;;;;;;;;734853;191;920154;-68
2022/11/18 06:12:29;;;;;;;50.00;23.67;;;;;;;;;;730480;191;924971;-67
2022/11/18 06:14:55;;;;;;;47.50;21.37;;;;;;;;;;729760;191;920506;-69
2022/11/18 06:17:24;;;;;;;55.70;27.00;;;;;;;;;;735548;189;911547;-68
2022/11/18 06:19:50;;;;;;;56.47;22.50;;;;;;;;;;731818;191;915806;-68
2022/11/18 06:22:16;;;;;;;63.93;27.77;;;;;;;;;;730220;191;920949;-67
2022/11/18 06:24:42;;;;;;;40.37;18.07;;;;;;;;;;730970;188;915883;-70
2022/11/18 06:27:08;;;;;;;59.30;25.40;;;;;;;;;;733173;191;916344;-67
2022/11/18 06:29:34;;;;;;;41.53;17.80;;;;;;;;;;728187;191;919070;-70
2022/11/18 06:32:00;;;;;;;52.25;24.52;;;;;;;;;;728139;191;1002835;-68
2022/11/18 06:34:25;;;;;;;34.23;15.90;;;;;;;;;;734507;191;1021252;-69
2022/11/18 06:36:52;;;;;;;31.50;16.43;;;;;;;;;;731086;190;901123;-66
2022/11/18 06:39:17;;;;;;;55.30;21.47;;;;;;;;;;730217;191;918534;-66
2022/11/18 06:41:43;;;;;;;51.40;22.27;;;;;;;;;;734063;191;917209;-65
2022/11/18 06:44:10;;;;;;;29.60;11.97;;;;;;;;;;729511;191;892590;-64
2022/11/18 06:49:07;;;;;;;26.50;13.67;;;;;;;;;;729260;191;934191;-64
2022/11/18 06:51:33;;;;;;;49.43;19.97;;;;;;;;;;735922;191;765394;-66
2022/11/18 06:53:59;;;;;;;67.07;24.20;;;;;;;;;;729512;188;814726;-64
2022/11/18 06:56:25;;;;;;;51.53;21.00;;;;;;;;;;729904;191;917926;-68
2022/11/18 06:58:51;;;;;;;74.13;34.67;;;;;;;;;;735111;191;918238;-68
2022/11/18 07:01:17;;;;;;;47.53;18.30;;;;;;;;;;733528;190;893804;-67
2022/11/18 07:03:43;;;;;;;34.40;17.63;;;;;;;;;;731596;190;918085;-68
2022/11/18 07:06:09;;;;;;;46.87;21.57;;;;;;;;;;733873;190;932984;-67
2022/11/18 07:08:35;;;;;;;51.63;20.70;;;;;;;;;;732248;190;919147;-69
2022/11/18 07:11:01;;;;;;;48.23;22.30;;;;;;;;;;730216;191;918897;-67
2022/11/18 07:13:26;;;;;;;33.47;15.33;;;;;;;;;;728573;189;916199;-66
2022/11/18 07:15:52;;;;;;;101.93;49.40;;;;;;;;;;736841;191;918307;-63
2022/11/18 07:18:18;;;;;;;67.23;30.77;;;;;;;;;;728453;191;919342;-66
2022/11/18 07:20:44;;;;;;;49.77;24.27;;;;;;;;;;728359;191;919190;-64
2022/11/18 07:23:10;;;;;;;41.87;20.57;;;;;;;;;;736412;191;815734;-63
2022/11/18 07:25:36;;;;;;;46.47;20.90;;;;;;;;;;728483;191;1013966;-63
2022/11/18 07:28:02;;;;;;;39.93;17.83;;;;;;;;;;731049;191;812592;-63
2022/11/18 07:30:27;;;;;;;51.33;26.37;;;;;;;;;;731556;191;913469;-65
2022/11/18 07:32:53;;;;;;;46.77;20.83;;;;;;;;;;740625;187;919929;-65
2022/11/18 07:35:19;;;;;;;48.27;21.50;;;;;;;;;;731468;189;918508;-66
2022/11/18 07:37:45;;;;;;;41.33;20.77;;;;;;;;;;728600;191;1021293;-64
2022/11/18 07:40:11;;;;;;;40.37;20.83;;;;;;;;;;736306;191;801203;-61
2022/11/18 07:42:41;;;;;;;52.50;21.50;;;;;;;;;;728694;191;918754;-63
2022/11/18 07:45:03;;;;;;;44.50;23.23;;;;;;;;;;728102;191;918543;-61
2022/11/18 07:47:29;;;;;;;42.73;18.40;;;;;;;;;;730648;187;918307;-62
2022/11/18 07:49:54;;;;;;;82.70;43.23;;;;;;;;;;730749;191;916163;-63
2022/11/18 07:52:20;;;;;;;38.23;27.80;;;;;;;;;;728495;191;919192;-61
2022/11/18 07:54:46;;;;;;;46.43;22.67;;;;;;;;;;737340;191;916829;-61
2022/11/18 07:57:12;;;;;;;70.63;37.00;;;;;;;;;;731834;191;917027;-64
2022/11/18 07:59:38;;;;;;;79.50;37.97;;;;;;;;;;730166;190;919729;-62
2022/11/18 08:02:05;;;;;;;82.93;28.50;;;;;;;;;;730068;190;919732;-61
2022/11/18 08:04:30;;;;;;;57.30;24.83;;;;;;;;;;734011;190;918882;-61
2022/11/18 08:06:55;;;;;;;113.07;46.80;;;;;;;;;;728568;191;919097;-60
2022/11/18 08:09:21;;;;;;;131.57;43.83;;;;;;;;;;731451;190;919040;-61
2022/11/18 08:11:47;;;;;;;39.97;20.60;;;;;;;;;;737219;189;918759;-62
2022/11/18 08:14:13;;;;;;;35.27;20.70;;;;;;;;;;733761;190;918930;-62
2022/11/18 08:16:39;;;;;;;36.23;19.10;;;;;;;;;;732755;190;916016;-63
2022/11/18 08:19:05;;;;;;;33.20;18.33;;;;;;;;;;734557;189;916575;-61
2022/11/18 08:21:31;;;;;;;25.07;14.90;;;;;;;;;;730658;191;915744;-63
2022/11/18 08:23:56;;;;;;;29.67;17.87;;;;;;;;;;731513;188;913277;-62
2022/11/18 08:26:23;;;;;;;23.17;11.33;;;;;;;;;;735613;191;912241;-61
2022/11/18 08:28:48;;;;;;;31.37;17.60;;;;;;;;;;735630;188;999120;-62
2022/11/18 08:31:15;;;;;;;34.10;14.20;;;;;;;;;;724912;190;916271;-63
2022/11/18 08:33:41;;;;;;;36.37;20.23;;;;;;;;;;727668;191;920405;-63
2022/11/18 08:36:09;;;;;;;35.10;20.40;;;;;;;;;;740588;190;920621;-62
2022/11/18 08:38:35;;;;;;;37.53;24.10;;;;;;;;;;731167;189;919431;-62
2022/11/18 08:41:02;;;;;;;43.20;25.40;;;;;;;;;;731582;190;920540;-64
2022/11/18 08:43:27;;;;;;;37.47;20.30;;;;;;;;;;735313;191;814789;-61
2022/11/18 08:45:53;;;;;;;22.15;13.95;;;;;;;;;;730752;188;934162;-61
2022/11/18 08:48:19;;;;;;;38.13;21.63;;;;;;;;;;728464;191;921805;-62
2022/11/18 08:50:45;;;;;;;44.90;23.20;;;;;;;;;;731328;190;920277;-62
2022/11/18 08:53:10;;;;;;;37.20;23.00;;;;;;;;;;735501;191;922243;-62
2022/11/18 08:55:36;;;;;;;32.43;18.77;;;;;;;;;;728636;191;917673;-61
2022/11/18 08:58:02;;;;;;;28.37;16.57;;;;;;;;;;728971;189;922606;-62
2022/11/18 09:00:28;;;;;;;28.77;14.45;;;;;;;;;;734540;191;818005;-61
2022/11/18 09:02:54;;;;;;;24.30;15.30;;;;;;;;;;723837;191;919326;-61
2022/11/18 09:05:20;;;;;;;25.17;16.08;;;;;;;;;;724546;192;1021529;-62
2022/11/18 09:07:46;;;;;;;24.23;13.37;;;;;;;;;;736740;188;919305;-62
2022/11/18 09:10:11;;;;;;;20.90;13.27;;;;;;;;;;733182;190;919139;-61
2022/11/18 09:12:37;;;;;;;23.87;16.53;;;;;;;;;;733399;191;842233;-61
2022/11/18 09:15:03;;;;;;;30.60;16.67;;;;;;;;;;727544;191;919118;-61
2022/11/18 09:17:29;;;;;;;25.60;15.67;;;;;;;;;;735984;192;816528;-60
2022/11/18 09:19:55;;;;;;;26.40;16.27;;;;;;;;;;728775;191;919306;-60
2022/11/18 09:22:21;;;;;;;24.75;16.27;;;;;;;;;;730463;189;919238;-61
2022/11/18 09:24:47;;;;;;;25.30;14.20;;;;;;;;;;739428;191;816920;-60
2022/11/18 09:27:12;;;;;;;19.17;13.53;;;;;;;;;;732557;191;818082;-60
2022/11/18 09:29:38;;;;;;;29.93;17.87;;;;;;;;;;728850;189;919349;-61
2022/11/18 09:32:04;;;;;;;21.13;9.77;;;;;;;;;;735111;191;919179;-60
2022/11/18 09:34:30;;;;;;;22.60;13.50;;;;;;;;;;730816;191;824066;-60
2022/11/18 09:36:56;;;;;;;32.50;20.03;;;;;;;;;;731176;191;919126;-59
2022/11/18 09:39:22;;;;;;;32.80;18.02;;;;;;;;;;736882;190;923340;-59
2022/11/18 09:41:48;;;;;;;29.33;17.33;;;;;;;;;;732738;191;912445;-59
2022/11/18 09:44:25;;;;;;;37.93;23.67;;;;;;;;;;728612;188;916996;-59
2022/11/18 09:46:54;;;;;;;25.60;15.93;;;;;;;;;;727761;191;920913;-61
2022/11/18 09:49:20;;;;;;;33.80;20.37;;;;;;;;;;729850;191;860786;-59
2022/11/18 09:51:46;;;;;;;23.60;15.93;;;;;;;;;;727981;191;919305;-60
2022/11/18 09:54:12;;;;;;;28.20;19.10;;;;;;;;;;738472;189;815306;-59
2022/11/18 09:56:37;;;;;;;16.07;9.00;;;;;;;;;;729336;191;920990;-62
2022/11/18 09:59:03;;;;;;;24.30;14.73;;;;;;;;;;738663;188;914613;-62
2022/11/18 10:01:30;;;;;;;34.07;18.60;;;;;;;;;;729000;191;916153;-60
2022/11/18 10:03:56;;;;;;;19.20;12.70;;;;;;;;;;730923;192;911907;-58
2022/11/18 10:06:22;;;;;;;25.43;16.97;;;;;;;;;;734187;191;919306;-59
2022/11/18 10:08:54;;;;;;;22.30;12.40;;;;;;;;;;730044;189;907003;-60
2022/11/18 10:11:20;;;;;;;25.83;16.20;;;;;;;;;;734675;191;910989;-60
2022/11/18 10:14:03;;;;;;;26.83;14.20;;;;;;;;;;732465;190;920334;-59
2022/11/18 10:16:31;;;;;;;20.47;12.27;;;;;;;;;;729493;190;917599;-61
2022/11/18 10:19:01;;;;;;;23.83;12.70;;;;;;;;;;735244;190;819988;-62
2022/11/18 10:21:43;;;;;;;20.10;10.93;;;;;;;;;;729882;191;918379;-58
2022/11/18 10:24:10;;;;;;;36.33;23.80;;;;;;;;;;725809;191;1020147;-62
2022/11/18 10:26:36;;;;;;;29.75;17.77;;;;;;;;;;730024;191;881847;-59
2022/11/18 10:29:01;;;;;;;25.85;17.62;;;;;;;;;;731553;188;916938;-58
2022/11/18 10:31:27;;;;;;;18.87;12.27;;;;;;;;;;734852;191;925494;-59
2022/11/18 10:33:57;;;;;;;34.08;17.52;;;;;;;;;;731163;189;917306;-60
2022/11/18 10:36:24;;;;;;;34.53;15.40;;;;;;;;;;732593;191;909466;-61
2022/11/18 10:38:50;;;;;;;35.00;22.23;;;;;;;;;;737029;190;898318;-62
2022/11/18 10:41:16;;;;;;;45.03;20.37;;;;;;;;;;732863;190;917792;-59
2022/11/18 10:43:44;;;;;;;35.17;21.57;;;;;;;;;;730956;189;919286;-59
2022/11/18 10:46:16;;;;;;;32.30;14.80;;;;;;;;;;729845;191;919484;-59
2022/11/18 10:48:42;;;;;;;57.97;32.55;;;;;;;;;;735617;188;919167;-59
2022/11/18 10:51:13;;;;;;;25.13;13.60;;;;;;;;;;730107;191;919260;-63
2022/11/18 10:53:41;;;;;;;29.43;15.60;;;;;;;;;;732246;190;919708;-63
2022/11/18 10:56:06;;;;;;;25.63;13.93;;;;;;;;;;729060;191;918582;-65
2022/11/18 10:58:33;;;;;;;46.80;25.87;;;;;;;;;;732844;192;919340;-64
2022/11/18 11:01:03;;;;;;;37.87;21.17;;;;;;;;;;725988;191;919755;-60
2022/11/18 11:03:30;;;;;;;53.97;30.10;;;;;;;;;;733056;192;909677;-64
2022/11/18 11:06:02;;;;;;;38.93;24.73;;;;;;;;;;733301;190;921686;-64
2022/11/18 11:08:28;;;;;;;39.80;21.90;;;;;;;;;;742185;187;914592;-59
2022/11/18 11:10:54;;;;;;;63.97;27.10;;;;;;;;;;732147;190;918985;-60
2022/11/18 11:13:19;;;;;;;34.03;15.93;;;;;;;;;;728283;191;919566;-65
2022/11/18 11:15:45;;;;;;;31.33;19.10;;;;;;;;;;734610;191;884126;-64
2022/11/18 11:20:43;;;;;;;37.80;22.20;;;;;;;;;;729699;191;918562;-59
2022/11/18 11:23:09;;;;;;;32.30;17.17;;;;;;;;;;729757;188;919252;-64
2022/11/18 11:25:35;;;;;;;38.90;22.63;;;;;;;;;;733869;191;817384;-65
2022/11/18 11:28:15;;;;;;;50.35;29.85;;;;;;;;;;729313;191;918711;-64
2022/11/18 11:30:44;;;;;;;35.20;19.30;;;;;;;;;;730359;191;917025;-65
2022/11/18 11:33:14;;;;;;;46.60;27.93;;;;;;;;;;727461;191;918959;-66
2022/11/18 11:35:45;;;;;;;52.47;29.90;;;;;;;;;;734703;191;919595;-60
2022/11/18 11:38:12;;;;;;;69.20;30.47;;;;;;;;;;737555;191;920693;-65
2022/11/18 11:40:54;;;;;;;43.30;24.37;;;;;;;;;;733605;190;920277;-65
2022/11/18 11:43:20;;;;;;;35.90;18.03;;;;;;;;;;735309;188;887229;-64
2022/11/18 11:45:48;;;;;;;17.97;11.13;;;;;;;;;;734612;188;818657;-63
2022/11/18 11:48:30;;;;;;;30.80;17.50;;;;;;;;;;733544;191;919315;-59
2022/11/18 11:50:59;;;;;;;18.90;12.07;;;;;;;;;;739484;189;919633;-59
2022/11/18 11:53:44;;;;;;;15.83;10.77;;;;;;;;;;735410;187;919316;-59
2022/11/18 11:56:11;;;;;;;20.00;14.47;;;;;;;;;;729108;191;818076;-65
2022/11/18 11:58:54;;;;;;;26.40;16.70;;;;;;;;;;726559;191;1738181;-60
2022/11/18 12:01:36;;;;;;;31.60;15.80;;;;;;;;;;732277;190;915522;-60
2022/11/18 12:04:03;;;;;;;30.43;18.13;;;;;;;;;;732322;190;863845;-60
2022/11/18 12:06:29;;;;;;;26.97;15.90;;;;;;;;;;730335;191;926035;-64
2022/11/18 12:09:05;;;;;;;29.83;19.03;;;;;;;;;;733930;191;912984;-63
2022/11/18 12:11:33;;;;;;;29.63;17.67;;;;;;;;;;738182;188;901090;-63
2022/11/18 12:14:16;;;;;;;25.27;16.50;;;;;;;;;;734840;190;918638;-60
2022/11/18 12:16:43;;;;;;;60.70;29.63;;;;;;;;;;730546;189;995319;-60
2022/11/18 12:19:11;;;;;;;58.37;26.17;;;;;;;;;;730920;188;947514;-64
2022/11/18 12:21:59;;;;;;;41.27;24.07;;;;;;;;;;734146;191;918458;-60
2022/11/18 12:24:29;;;;;;;35.70;20.27;;;;;;;;;;730882;190;916373;-60
2022/11/18 12:26:51;;;;;;;39.57;21.93;;;;;;;;;;737238;190;918679;-60
2022/11/18 12:29:21;;;;;;;39.27;22.60;;;;;;;;;;729518;191;914522;-64
2022/11/18 12:32:01;;;;;;;24.17;15.27;;;;;;;;;;729829;191;921620;-60
2022/11/18 12:34:27;;;;;;;26.20;16.10;;;;;;;;;;729431;191;918770;-63
2022/11/18 12:36:53;;;;;;;32.57;18.80;;;;;;;;;;736800;191;924216;-60
2022/11/18 12:39:38;;;;;;;28.47;15.57;;;;;;;;;;725362;190;920408;-59
2022/11/18 12:44:38;;;;;;;27.17;18.83;;;;;;;;;;729956;191;918004;-62
2022/11/18 12:47:02;;;;;;;17.00;11.53;;;;;;;;;;730782;191;916258;-59
2022/11/18 12:49:43;;;;;;;28.60;14.97;;;;;;;;;;734750;190;915779;-61
2022/11/18 12:52:23;;;;;;;42.57;25.97;;;;;;;;;;728383;191;919240;-59
2022/11/18 12:54:49;;;;;;;42.60;24.67;;;;;;;;;;731913;191;919654;-62
2022/11/18 12:57:18;;;;;;;27.50;17.83;;;;;;;;;;730973;188;919219;-58
2022/11/18 12:59:44;;;;;;;40.83;24.00;;;;;;;;;;733511;190;917926;-59
2022/11/18 13:02:25;;;;;;;43.53;24.55;;;;;;;;;;736557;190;915495;-61
2022/11/18 13:05:07;;;;;;;31.53;17.20;;;;;;;;;;738367;190;916007;-61
2022/11/18 13:10:26;;;;;;;33.13;21.33;;;;;;;;;;725169;191;915360;-60
2022/11/18 13:12:51;;;;;;;39.23;22.37;;;;;;;;;;738960;188;820494;-59
2022/11/18 13:17:51;;;;;;;39.13;21.10;;;;;;;;;;730455;191;919757;-59
2022/11/18 13:20:18;;;;;;;26.47;14.87;;;;;;;;;;727618;191;919101;-59
2022/11/18 13:25:21;;;;;;;41.17;20.80;;;;;;;;;;736167;189;920364;-59
2022/11/18 13:27:47;;;;;;;43.70;25.07;;;;;;;;;;735541;190;711233;-60
2022/11/18 13:30:14;;;;;;;66.47;34.63;;;;;;;;;;729958;191;919465;-58
2022/11/18 13:32:43;;;;;;;46.80;23.90;;;;;;;;;;734176;191;627518;-58
2022/11/18 13:35:09;;;;;;;31.50;21.30;;;;;;;;;;733285;191;918450;-58
2022/11/18 13:37:35;;;;;;;34.65;20.58;;;;;;;;;;733584;188;922211;-58
2022/11/18 13:40:01;;;;;;;25.23;13.63;;;;;;;;;;738429;191;918168;-60
2022/11/18 13:42:27;;;;;;;32.83;15.30;;;;;;;;;;726419;189;916865;-59
2022/11/18 13:44:54;;;;;;;29.65;18.10;;;;;;;;;;731432;192;902742;-60
2022/11/18 13:47:20;;;;;;;32.33;19.63;;;;;;;;;;732002;191;902803;-60
2022/11/18 13:49:46;;;;;;;43.90;26.40;;;;;;;;;;736579;191;919031;-60
2022/11/18 13:52:13;;;;;;;38.63;21.30;;;;;;;;;;732061;190;918884;-60
2022/11/18 13:54:39;;;;;;;41.25;21.70;;;;;;;;;;731626;187;919358;-58
2022/11/18 13:57:05;;;;;;;37.07;22.17;;;;;;;;;;732964;191;919823;-59
2022/11/18 13:59:32;;;;;;;36.47;19.80;;;;;;;;;;727289;190;919063;-60
2022/11/18 14:01:56;;;;;;;36.30;22.23;;;;;;;;;;730316;191;918745;-60
2022/11/18 14:04:22;;;;;;;41.73;23.57;;;;;;;;;;734205;188;918550;-60
2022/11/18 14:06:48;;;;;;;33.00;18.73;;;;;;;;;;734548;191;920681;-60
2022/11/18 14:09:14;;;;;;;39.93;23.43;;;;;;;;;;727497;189;912633;-61
2022/11/18 14:11:40;;;;;;;49.87;25.37;;;;;;;;;;733057;190;918271;-61
2022/11/18 14:14:06;;;;;;;38.80;20.23;;;;;;;;;;736035;187;1007765;-61
2022/11/18 14:16:33;;;;;;;35.27;21.50;;;;;;;;;;733642;190;916692;-60
2022/11/18 14:18:59;;;;;;;34.83;22.73;;;;;;;;;;730046;190;914078;-61
2022/11/18 14:21:27;;;;;;;36.43;22.27;;;;;;;;;;738298;191;819004;-61
2022/11/18 14:23:53;;;;;;;40.30;23.73;;;;;;;;;;731925;190;916482;-59
2022/11/18 14:26:25;;;;;;;35.23;22.40;;;;;;;;;;723998;191;923957;-62
2022/11/18 14:28:52;;;;;;;27.30;16.17;;;;;;;;;;730035;188;919370;-60